sensor_id;sensor_type;location;lat;lon;timestamp;P1;durP1;ratioP1;P2;durP2;ratioP2
12921;SDS011;6528;48.086;16.282;2022-07-03T00:00:10;4.17;;;3.90;;
12921;SDS011;6528;48.086;16.282;2022-07-03T00:02:38;4.57;;;4.17;;
12921;SDS011;6528;48.086;16.282;2022-07-03T00:05:05;4.37;;;4.07;;
12921;SDS011;6528;48.086;16.282;2022-07-03T00:07:32;5.10;;;4.50;;
12921;SDS011;6528;48.086;16.282;2022-07-03T00:09:59;5.27;;;4.87;;
12921;SDS011;6528;48.086;16.282;2022-07-03T00:12:27;4.30;;;3.90;;
12921;SDS011;6528;48.086;16.282;2022-07-03T00:14:54;5.50;;;4.27;;
12921;SDS011;6528;48.086;16.282;2022-07-03T00:17:21;4.17;;;3.87;;
12921;SDS011;6528;48.086;16.282;2022-07-03T00:19:48;4.10;;;3.80;;
12921;SDS011;6528;48.086;16.282;2022-07-03T00:22:15;4.67;;;4.27;;
12921;SDS011;6528;48.086;16.282;2022-07-03T00:25:01;3.90;;;3.70;;
12921;SDS011;6528;48.086;16.282;2022-07-03T00:27:28;4.37;;;4.07;;
12921;SDS011;6528;48.086;16.282;2022-07-03T00:29:56;5.27;;;3.83;;
12921;SDS011;6528;48.086;16.282;2022-07-03T00:32:25;4.40;;;4.00;;
12921;SDS011;6528;48.086;16.282;2022-07-03T00:34:53;4.43;;;4.13;;
12921;SDS011;6528;48.086;16.282;2022-07-03T00:37:21;4.80;;;4.40;;
12921;SDS011;6528;48.086;16.282;2022-07-03T00:39:48;4.87;;;4.47;;
12921;SDS011;6528;48.086;16.282;2022-07-03T00:42:16;4.80;;;4.50;;
12921;SDS011;6528;48.086;16.282;2022-07-03T00:44:48;4.53;;;4.23;;
12921;SDS011;6528;48.086;16.282;2022-07-03T00:47:16;4.57;;;4.27;;
12921;SDS011;6528;48.086;16.282;2022-07-03T00:49:45;4.70;;;4.40;;
12921;SDS011;6528;48.086;16.282;2022-07-03T00:52:13;7.80;;;3.90;;
12921;SDS011;6528;48.086;16.282;2022-07-03T00:54:44;4.60;;;4.20;;
12921;SDS011;6528;48.086;16.282;2022-07-03T00:57:14;4.87;;;4.53;;
12921;SDS011;6528;48.086;16.282;2022-07-03T00:59:41;4.40;;;4.10;;
12921;SDS011;6528;48.086;16.282;2022-07-03T01:02:15;4.30;;;4.00;;
12921;SDS011;6528;48.086;16.282;2022-07-03T01:07:18;4.43;;;3.87;;
12921;SDS011;6528;48.086;16.282;2022-07-03T01:12:23;4.83;;;4.50;;
12921;SDS011;6528;48.086;16.282;2022-07-03T01:14:59;4.53;;;4.17;;
12921;SDS011;6528;48.086;16.282;2022-07-03T01:17:34;5.03;;;4.53;;
12921;SDS011;6528;48.086;16.282;2022-07-03T01:20:05;4.67;;;4.23;;
12921;SDS011;6528;48.086;16.282;2022-07-03T01:30:07;4.40;;;4.10;;
12921;SDS011;6528;48.086;16.282;2022-07-03T01:32:46;5.00;;;4.60;;
12921;SDS011;6528;48.086;16.282;2022-07-03T01:35:18;5.10;;;4.80;;
12921;SDS011;6528;48.086;16.282;2022-07-03T01:37:48;5.33;;;4.83;;
12921;SDS011;6528;48.086;16.282;2022-07-03T01:40:17;7.43;;;4.90;;
12921;SDS011;6528;48.086;16.282;2022-07-03T01:42:45;4.60;;;4.30;;
12921;SDS011;6528;48.086;16.282;2022-07-03T01:45:13;6.40;;;4.20;;
12921;SDS011;6528;48.086;16.282;2022-07-03T01:47:42;4.67;;;4.37;;
12921;SDS011;6528;48.086;16.282;2022-07-03T01:50:12;4.90;;;4.20;;
12921;SDS011;6528;48.086;16.282;2022-07-03T01:52:40;5.23;;;4.83;;
12921;SDS011;6528;48.086;16.282;2022-07-03T01:55:11;5.40;;;4.90;;
12921;SDS011;6528;48.086;16.282;2022-07-03T02:00:09;5.03;;;4.57;;
12921;SDS011;6528;48.086;16.282;2022-07-03T02:02:39;4.70;;;4.40;;
12921;SDS011;6528;48.086;16.282;2022-07-03T02:05:08;6.00;;;5.40;;
12921;SDS011;6528;48.086;16.282;2022-07-03T02:07:41;5.73;;;5.33;;
12921;SDS011;6528;48.086;16.282;2022-07-03T02:10:30;5.97;;;5.47;;
12921;SDS011;6528;48.086;16.282;2022-07-03T02:13:07;5.30;;;4.90;;
12921;SDS011;6528;48.086;16.282;2022-07-03T02:15:41;5.30;;;4.90;;
12921;SDS011;6528;48.086;16.282;2022-07-03T02:18:11;5.37;;;4.87;;
12921;SDS011;6528;48.086;16.282;2022-07-03T02:20:39;4.97;;;4.67;;
12921;SDS011;6528;48.086;16.282;2022-07-03T02:23:06;5.60;;;5.10;;
12921;SDS011;6528;48.086;16.282;2022-07-03T02:25:35;5.73;;;5.20;;
12921;SDS011;6528;48.086;16.282;2022-07-03T02:28:11;5.60;;;5.10;;
12921;SDS011;6528;48.086;16.282;2022-07-03T02:30:41;5.83;;;5.20;;
12921;SDS011;6528;48.086;16.282;2022-07-03T02:33:14;5.23;;;4.93;;
12921;SDS011;6528;48.086;16.282;2022-07-03T02:35:47;5.10;;;4.70;;
12921;SDS011;6528;48.086;16.282;2022-07-03T02:38:16;5.70;;;5.20;;
12921;SDS011;6528;48.086;16.282;2022-07-03T02:40:47;5.17;;;4.77;;
12921;SDS011;6528;48.086;16.282;2022-07-03T02:52:30;5.30;;;4.90;;
12921;SDS011;6528;48.086;16.282;2022-07-03T02:55:45;5.93;;;5.47;;
12921;SDS011;6528;48.086;16.282;2022-07-03T02:58:23;5.30;;;4.87;;
12921;SDS011;6528;48.086;16.282;2022-07-03T03:04:38;6.27;;;5.77;;
12921;SDS011;6528;48.086;16.282;2022-07-03T03:07:08;5.93;;;5.43;;
12921;SDS011;6528;48.086;16.282;2022-07-03T03:12:13;5.10;;;4.70;;
12921;SDS011;6528;48.086;16.282;2022-07-03T03:14:42;6.10;;;5.60;;
12921;SDS011;6528;48.086;16.282;2022-07-03T03:17:18;6.00;;;5.50;;
12921;SDS011;6528;48.086;16.282;2022-07-03T03:19:52;5.20;;;4.80;;
12921;SDS011;6528;48.086;16.282;2022-07-03T03:25:36;6.63;;;5.80;;
12921;SDS011;6528;48.086;16.282;2022-07-03T03:28:04;5.07;;;4.63;;
12921;SDS011;6528;48.086;16.282;2022-07-03T03:30:31;6.20;;;5.20;;
12921;SDS011;6528;48.086;16.282;2022-07-03T03:32:58;4.87;;;4.47;;
12921;SDS011;6528;48.086;16.282;2022-07-03T03:35:24;5.80;;;5.37;;
12921;SDS011;6528;48.086;16.282;2022-07-03T03:37:51;5.30;;;4.80;;
12921;SDS011;6528;48.086;16.282;2022-07-03T03:40:18;6.00;;;5.40;;
12921;SDS011;6528;48.086;16.282;2022-07-03T03:42:45;5.40;;;5.00;;
12921;SDS011;6528;48.086;16.282;2022-07-03T03:45:12;4.53;;;4.23;;
12921;SDS011;6528;48.086;16.282;2022-07-03T03:47:38;4.90;;;4.50;;
12921;SDS011;6528;48.086;16.282;2022-07-03T03:50:05;5.63;;;5.13;;
12921;SDS011;6528;48.086;16.282;2022-07-03T03:52:32;5.40;;;4.90;;
12921;SDS011;6528;48.086;16.282;2022-07-03T03:55:00;5.33;;;4.90;;
12921;SDS011;6528;48.086;16.282;2022-07-03T03:57:26;6.20;;;5.60;;
12921;SDS011;6528;48.086;16.282;2022-07-03T03:59:54;5.17;;;4.77;;
12921;SDS011;6528;48.086;16.282;2022-07-03T04:02:22;4.97;;;4.57;;
12921;SDS011;6528;48.086;16.282;2022-07-03T04:04:49;5.07;;;4.60;;
12921;SDS011;6528;48.086;16.282;2022-07-03T04:07:16;5.27;;;4.87;;
12921;SDS011;6528;48.086;16.282;2022-07-03T04:09:43;5.33;;;4.80;;
12921;SDS011;6528;48.086;16.282;2022-07-03T04:12:11;6.43;;;5.83;;
12921;SDS011;6528;48.086;16.282;2022-07-03T04:14:38;5.67;;;5.27;;
12921;SDS011;6528;48.086;16.282;2022-07-03T04:17:05;5.43;;;4.93;;
12921;SDS011;6528;48.086;16.282;2022-07-03T04:19:32;5.60;;;5.20;;
12921;SDS011;6528;48.086;16.282;2022-07-03T04:22:00;5.13;;;4.77;;
12921;SDS011;6528;48.086;16.282;2022-07-03T04:24:26;6.00;;;5.50;;
12921;SDS011;6528;48.086;16.282;2022-07-03T04:26:53;5.23;;;4.83;;
12921;SDS011;6528;48.086;16.282;2022-07-03T04:29:20;5.50;;;5.10;;
12921;SDS011;6528;48.086;16.282;2022-07-03T04:31:47;5.50;;;4.83;;
12921;SDS011;6528;48.086;16.282;2022-07-03T04:34:14;6.07;;;5.47;;
12921;SDS011;6528;48.086;16.282;2022-07-03T04:36:40;6.13;;;5.70;;
12921;SDS011;6528;48.086;16.282;2022-07-03T04:39:07;5.60;;;4.73;;
12921;SDS011;6528;48.086;16.282;2022-07-03T04:41:34;5.67;;;4.43;;
12921;SDS011;6528;48.086;16.282;2022-07-03T04:44:01;5.73;;;5.07;;
12921;SDS011;6528;48.086;16.282;2022-07-03T04:46:27;5.90;;;5.30;;
12921;SDS011;6528;48.086;16.282;2022-07-03T04:48:54;6.07;;;5.53;;
12921;SDS011;6528;48.086;16.282;2022-07-03T04:51:21;5.60;;;4.83;;
12921;SDS011;6528;48.086;16.282;2022-07-03T04:53:48;5.00;;;4.60;;
12921;SDS011;6528;48.086;16.282;2022-07-03T04:56:15;5.30;;;4.90;;
12921;SDS011;6528;48.086;16.282;2022-07-03T04:58:42;5.20;;;4.80;;
12921;SDS011;6528;48.086;16.282;2022-07-03T05:01:09;5.57;;;5.07;;
12921;SDS011;6528;48.086;16.282;2022-07-03T05:03:36;5.37;;;4.97;;
12921;SDS011;6528;48.086;16.282;2022-07-03T05:06:02;6.00;;;5.40;;
12921;SDS011;6528;48.086;16.282;2022-07-03T05:08:29;5.40;;;5.07;;
12921;SDS011;6528;48.086;16.282;2022-07-03T05:10:56;5.80;;;5.30;;
12921;SDS011;6528;48.086;16.282;2022-07-03T05:13:23;9.00;;;6.23;;
12921;SDS011;6528;48.086;16.282;2022-07-03T05:15:50;6.03;;;5.60;;
12921;SDS011;6528;48.086;16.282;2022-07-03T05:18:17;5.27;;;4.87;;
12921;SDS011;6528;48.086;16.282;2022-07-03T05:20:47;5.87;;;5.47;;
12921;SDS011;6528;48.086;16.282;2022-07-03T05:23:14;5.53;;;5.13;;
12921;SDS011;6528;48.086;16.282;2022-07-03T05:25:41;6.83;;;5.63;;
12921;SDS011;6528;48.086;16.282;2022-07-03T05:28:08;9.80;;;6.00;;
12921;SDS011;6528;48.086;16.282;2022-07-03T05:30:34;6.60;;;6.07;;
12921;SDS011;6528;48.086;16.282;2022-07-03T05:33:01;5.47;;;5.07;;
12921;SDS011;6528;48.086;16.282;2022-07-03T05:35:28;5.70;;;5.20;;
12921;SDS011;6528;48.086;16.282;2022-07-03T05:37:55;5.47;;;5.17;;
12921;SDS011;6528;48.086;16.282;2022-07-03T05:40:22;5.53;;;5.17;;
12921;SDS011;6528;48.086;16.282;2022-07-03T05:42:48;7.03;;;6.33;;
12921;SDS011;6528;48.086;16.282;2022-07-03T05:45:15;6.40;;;6.00;;
12921;SDS011;6528;48.086;16.282;2022-07-03T05:47:42;8.30;;;6.30;;
12921;SDS011;6528;48.086;16.282;2022-07-03T05:50:09;6.40;;;5.90;;
12921;SDS011;6528;48.086;16.282;2022-07-03T05:52:36;6.83;;;6.23;;
12921;SDS011;6528;48.086;16.282;2022-07-03T05:55:04;6.13;;;5.73;;
12921;SDS011;6528;48.086;16.282;2022-07-03T05:57:31;6.50;;;6.00;;
12921;SDS011;6528;48.086;16.282;2022-07-03T05:59:59;6.63;;;6.10;;
12921;SDS011;6528;48.086;16.282;2022-07-03T06:02:26;5.83;;;5.43;;
12921;SDS011;6528;48.086;16.282;2022-07-03T06:04:53;6.10;;;5.60;;
12921;SDS011;6528;48.086;16.282;2022-07-03T06:07:20;6.80;;;6.20;;
12921;SDS011;6528;48.086;16.282;2022-07-03T06:09:48;6.40;;;5.90;;
12921;SDS011;6528;48.086;16.282;2022-07-03T06:12:14;6.70;;;6.17;;
12921;SDS011;6528;48.086;16.282;2022-07-03T06:14:41;6.00;;;5.50;;
12921;SDS011;6528;48.086;16.282;2022-07-03T06:17:08;6.23;;;5.73;;
12921;SDS011;6528;48.086;16.282;2022-07-03T06:19:35;5.77;;;5.37;;
12921;SDS011;6528;48.086;16.282;2022-07-03T06:22:02;6.00;;;5.60;;
12921;SDS011;6528;48.086;16.282;2022-07-03T06:24:28;6.00;;;5.60;;
12921;SDS011;6528;48.086;16.282;2022-07-03T06:26:55;6.30;;;5.90;;
12921;SDS011;6528;48.086;16.282;2022-07-03T06:29:22;6.40;;;5.97;;
12921;SDS011;6528;48.086;16.282;2022-07-03T06:31:49;5.67;;;5.27;;
12921;SDS011;6528;48.086;16.282;2022-07-03T06:34:15;6.20;;;5.70;;
12921;SDS011;6528;48.086;16.282;2022-07-03T06:36:42;7.03;;;6.37;;
12921;SDS011;6528;48.086;16.282;2022-07-03T06:39:09;5.73;;;5.33;;
12921;SDS011;6528;48.086;16.282;2022-07-03T06:41:36;5.80;;;5.30;;
12921;SDS011;6528;48.086;16.282;2022-07-03T06:44:02;8.97;;;5.97;;
12921;SDS011;6528;48.086;16.282;2022-07-03T06:46:29;5.77;;;5.37;;
12921;SDS011;6528;48.086;16.282;2022-07-03T06:48:56;8.70;;;5.73;;
12921;SDS011;6528;48.086;16.282;2022-07-03T06:51:23;7.07;;;4.60;;
12921;SDS011;6528;48.086;16.282;2022-07-03T06:53:50;7.83;;;4.30;;
12921;SDS011;6528;48.086;16.282;2022-07-03T06:56:17;6.90;;;4.00;;
12921;SDS011;6528;48.086;16.282;2022-07-03T06:58:44;4.10;;;3.80;;
12921;SDS011;6528;48.086;16.282;2022-07-03T07:01:11;4.00;;;3.70;;
12921;SDS011;6528;48.086;16.282;2022-07-03T07:03:37;4.43;;;3.70;;
12921;SDS011;6528;48.086;16.282;2022-07-03T07:06:04;3.40;;;3.20;;
12921;SDS011;6528;48.086;16.282;2022-07-03T07:08:31;3.35;;;2.97;;
12921;SDS011;6528;48.086;16.282;2022-07-03T07:10:58;3.55;;;3.25;;
12921;SDS011;6528;48.086;16.282;2022-07-03T07:13:25;3.40;;;3.10;;
12921;SDS011;6528;48.086;16.282;2022-07-03T07:15:52;3.53;;;3.33;;
12921;SDS011;6528;48.086;16.282;2022-07-03T07:18:18;3.45;;;3.15;;
12921;SDS011;6528;48.086;16.282;2022-07-03T07:20:45;4.80;;;2.83;;
12921;SDS011;6528;48.086;16.282;2022-07-03T07:23:12;2.83;;;2.70;;
12921;SDS011;6528;48.086;16.282;2022-07-03T07:25:39;3.30;;;3.20;;
12921;SDS011;6528;48.086;16.282;2022-07-03T07:28:09;3.78;;;3.00;;
12921;SDS011;6528;48.086;16.282;2022-07-03T07:30:36;3.13;;;2.92;;
12921;SDS011;6528;48.086;16.282;2022-07-03T07:33:06;3.10;;;2.95;;
12921;SDS011;6528;48.086;16.282;2022-07-03T07:35:33;3.15;;;3.00;;
12921;SDS011;6528;48.086;16.282;2022-07-03T07:38:00;2.78;;;2.58;;
12921;SDS011;6528;48.086;16.282;2022-07-03T07:40:34;2.60;;;2.45;;
12921;SDS011;6528;48.086;16.282;2022-07-03T07:43:00;2.90;;;2.80;;
12921;SDS011;6528;48.086;16.282;2022-07-03T07:45:27;2.80;;;2.60;;
12921;SDS011;6528;48.086;16.282;2022-07-03T07:47:54;2.53;;;2.40;;
12921;SDS011;6528;48.086;16.282;2022-07-03T07:50:21;3.30;;;3.03;;
12921;SDS011;6528;48.086;16.282;2022-07-03T07:52:48;2.50;;;2.30;;
12921;SDS011;6528;48.086;16.282;2022-07-03T07:55:15;2.75;;;2.60;;
12921;SDS011;6528;48.086;16.282;2022-07-03T07:57:42;2.75;;;2.55;;
12921;SDS011;6528;48.086;16.282;2022-07-03T08:00:10;2.75;;;2.65;;
12921;SDS011;6528;48.086;16.282;2022-07-03T08:02:44;3.00;;;2.78;;
12921;SDS011;6528;48.086;16.282;2022-07-03T08:05:30;2.90;;;2.70;;
12921;SDS011;6528;48.086;16.282;2022-07-03T08:08:14;2.70;;;2.50;;
12921;SDS011;6528;48.086;16.282;2022-07-03T08:13:16;2.80;;;2.70;;
12921;SDS011;6528;48.086;16.282;2022-07-03T08:15:44;2.80;;;2.60;;
12921;SDS011;6528;48.086;16.282;2022-07-03T08:18:13;2.67;;;2.58;;
12921;SDS011;6528;48.086;16.282;2022-07-03T08:20:40;3.13;;;2.72;;
12921;SDS011;6528;48.086;16.282;2022-07-03T08:23:07;3.05;;;2.88;;
12921;SDS011;6528;48.086;16.282;2022-07-03T08:25:33;3.00;;;2.90;;
12921;SDS011;6528;48.086;16.282;2022-07-03T08:28:00;2.90;;;2.70;;
12921;SDS011;6528;48.086;16.282;2022-07-03T08:30:27;2.60;;;2.50;;
12921;SDS011;6528;48.086;16.282;2022-07-03T08:32:55;2.67;;;2.55;;
12921;SDS011;6528;48.086;16.282;2022-07-03T08:35:23;2.40;;;2.30;;
12921;SDS011;6528;48.086;16.282;2022-07-03T08:37:50;2.53;;;2.42;;
12921;SDS011;6528;48.086;16.282;2022-07-03T08:40:18;3.00;;;2.72;;
12921;SDS011;6528;48.086;16.282;2022-07-03T08:42:46;2.90;;;2.70;;
12921;SDS011;6528;48.086;16.282;2022-07-03T08:45:16;5.60;;;3.70;;
12921;SDS011;6528;48.086;16.282;2022-07-03T08:47:46;3.33;;;3.10;;
12921;SDS011;6528;48.086;16.282;2022-07-03T08:50:15;3.28;;;2.97;;
12921;SDS011;6528;48.086;16.282;2022-07-03T08:52:44;5.63;;;2.95;;
12921;SDS011;6528;48.086;16.282;2022-07-03T08:55:12;2.80;;;2.60;;
12921;SDS011;6528;48.086;16.282;2022-07-03T08:57:41;2.53;;;2.42;;
12921;SDS011;6528;48.086;16.282;2022-07-03T09:00:13;3.28;;;2.60;;
12921;SDS011;6528;48.086;16.282;2022-07-03T09:02:45;4.75;;;3.30;;
12921;SDS011;6528;48.086;16.282;2022-07-03T09:05:14;3.67;;;2.88;;
12921;SDS011;6528;48.086;16.282;2022-07-03T09:07:43;2.70;;;2.50;;
12921;SDS011;6528;48.086;16.282;2022-07-03T09:10:12;4.00;;;2.53;;
12921;SDS011;6528;48.086;16.282;2022-07-03T09:12:45;2.75;;;2.65;;
12921;SDS011;6528;48.086;16.282;2022-07-03T09:15:13;3.30;;;3.10;;
12921;SDS011;6528;48.086;16.282;2022-07-03T09:17:55;2.97;;;2.88;;
12921;SDS011;6528;48.086;16.282;2022-07-03T09:20:30;2.63;;;2.53;;
12921;SDS011;6528;48.086;16.282;2022-07-03T09:23:11;2.60;;;2.50;;
12921;SDS011;6528;48.086;16.282;2022-07-03T09:31:15;3.95;;;2.70;;
12921;SDS011;6528;48.086;16.282;2022-07-03T09:36:45;3.13;;;2.85;;
12921;SDS011;6528;48.086;16.282;2022-07-03T09:39:17;2.88;;;2.67;;
12921;SDS011;6528;48.086;16.282;2022-07-03T09:41:51;3.45;;;2.75;;
12921;SDS011;6528;48.086;16.282;2022-07-03T09:44:30;4.45;;;2.50;;
12921;SDS011;6528;48.086;16.282;2022-07-03T09:49:56;2.88;;;2.78;;
12921;SDS011;6528;48.086;16.282;2022-07-03T09:55:00;3.70;;;3.50;;
12921;SDS011;6528;48.086;16.282;2022-07-03T09:57:38;4.75;;;3.42;;
12921;SDS011;6528;48.086;16.282;2022-07-03T10:00:31;3.40;;;3.10;;
12921;SDS011;6528;48.086;16.282;2022-07-03T10:03:04;3.42;;;3.22;;
12921;SDS011;6528;48.086;16.282;2022-07-03T10:05:36;2.67;;;2.58;;
12921;SDS011;6528;48.086;16.282;2022-07-03T10:08:05;3.17;;;2.97;;
12921;SDS011;6528;48.086;16.282;2022-07-03T10:10:43;4.22;;;3.92;;
12921;SDS011;6528;48.086;16.282;2022-07-03T10:13:11;4.47;;;4.28;;
12921;SDS011;6528;48.086;16.282;2022-07-03T10:15:39;5.15;;;4.88;;
12921;SDS011;6528;48.086;16.282;2022-07-03T10:18:10;3.95;;;3.75;;
12921;SDS011;6528;48.086;16.282;2022-07-03T10:20:40;3.63;;;3.42;;
12921;SDS011;6528;48.086;16.282;2022-07-03T10:23:07;3.30;;;3.10;;
12921;SDS011;6528;48.086;16.282;2022-07-03T10:25:35;2.97;;;2.67;;
12921;SDS011;6528;48.086;16.282;2022-07-03T10:28:03;2.58;;;2.47;;
12921;SDS011;6528;48.086;16.282;2022-07-03T10:30:30;2.97;;;2.88;;
12921;SDS011;6528;48.086;16.282;2022-07-03T10:32:58;3.97;;;2.95;;
12921;SDS011;6528;48.086;16.282;2022-07-03T10:35:33;3.15;;;2.95;;
12921;SDS011;6528;48.086;16.282;2022-07-03T10:43:38;5.33;;;4.93;;
12921;SDS011;6528;48.086;16.282;2022-07-03T10:46:25;3.37;;;3.07;;
12921;SDS011;6528;48.086;16.282;2022-07-03T10:51:23;4.50;;;2.50;;
12921;SDS011;6528;48.086;16.282;2022-07-03T10:54:05;2.83;;;2.63;;
12921;SDS011;6528;48.086;16.282;2022-07-03T11:02:19;2.90;;;2.70;;
12921;SDS011;6528;48.086;16.282;2022-07-03T11:07:24;2.27;;;2.13;;
12921;SDS011;6528;48.086;16.282;2022-07-03T11:18:15;3.17;;;2.90;;
12921;SDS011;6528;48.086;16.282;2022-07-03T11:20:55;4.00;;;2.13;;
12921;SDS011;6528;48.086;16.282;2022-07-03T11:26:00;1.97;;;1.87;;
12921;SDS011;6528;48.086;16.282;2022-07-03T11:41:26;1.70;;;1.60;;
12921;SDS011;6528;48.086;16.282;2022-07-03T11:43:57;1.30;;;1.20;;
12921;SDS011;6528;48.086;16.282;2022-07-03T11:46:26;1.70;;;1.60;;
12921;SDS011;6528;48.086;16.282;2022-07-03T11:49:06;1.87;;;1.77;;
12921;SDS011;6528;48.086;16.282;2022-07-03T11:51:39;2.00;;;1.90;;
12921;SDS011;6528;48.086;16.282;2022-07-03T11:54:19;1.73;;;1.63;;
12921;SDS011;6528;48.086;16.282;2022-07-03T11:56:46;2.43;;;2.10;;
12921;SDS011;6528;48.086;16.282;2022-07-03T11:59:13;1.43;;;1.43;;
12921;SDS011;6528;48.086;16.282;2022-07-03T12:01:40;1.80;;;1.50;;
12921;SDS011;6528;48.086;16.282;2022-07-03T12:04:08;1.47;;;1.47;;
12921;SDS011;6528;48.086;16.282;2022-07-03T12:07:01;1.73;;;1.63;;
12921;SDS011;6528;48.086;16.282;2022-07-03T12:09:29;1.10;;;1.10;;
12921;SDS011;6528;48.086;16.282;2022-07-03T12:12:03;1.60;;;1.30;;
12921;SDS011;6528;48.086;16.282;2022-07-03T12:19:43;1.63;;;1.53;;
12921;SDS011;6528;48.086;16.282;2022-07-03T12:27:38;1.47;;;1.47;;
12921;SDS011;6528;48.086;16.282;2022-07-03T12:30:06;1.30;;;1.20;;
12921;SDS011;6528;48.086;16.282;2022-07-03T12:32:34;1.10;;;1.07;;
12921;SDS011;6528;48.086;16.282;2022-07-03T12:35:03;3.90;;;1.20;;
12921;SDS011;6528;48.086;16.282;2022-07-03T12:37:31;1.23;;;1.13;;
12921;SDS011;6528;48.086;16.282;2022-07-03T12:39:59;1.23;;;1.23;;
12921;SDS011;6528;48.086;16.282;2022-07-03T12:42:26;1.13;;;1.03;;
12921;SDS011;6528;48.086;16.282;2022-07-03T12:44:57;1.00;;;0.97;;
12921;SDS011;6528;48.086;16.282;2022-07-03T12:47:25;1.37;;;1.27;;
12921;SDS011;6528;48.086;16.282;2022-07-03T12:49:54;1.43;;;1.33;;
12921;SDS011;6528;48.086;16.282;2022-07-03T12:52:27;1.00;;;1.00;;
12921;SDS011;6528;48.086;16.282;2022-07-03T12:54:55;1.20;;;1.20;;
12921;SDS011;6528;48.086;16.282;2022-07-03T12:57:24;1.00;;;1.00;;
12921;SDS011;6528;48.086;16.282;2022-07-03T13:00:10;1.03;;;1.03;;
12921;SDS011;6528;48.086;16.282;2022-07-03T13:02:48;1.17;;;1.13;;
12921;SDS011;6528;48.086;16.282;2022-07-03T13:07:47;1.40;;;1.30;;
12921;SDS011;6528;48.086;16.282;2022-07-03T13:10:17;2.20;;;1.33;;
12921;SDS011;6528;48.086;16.282;2022-07-03T13:12:55;1.20;;;1.20;;
12921;SDS011;6528;48.086;16.282;2022-07-03T13:15:24;1.60;;;1.30;;
12921;SDS011;6528;48.086;16.282;2022-07-03T13:17:57;1.17;;;1.17;;
12921;SDS011;6528;48.086;16.282;2022-07-03T13:22:54;1.30;;;1.20;;
12921;SDS011;6528;48.086;16.282;2022-07-03T13:25:22;1.77;;;1.67;;
12921;SDS011;6528;48.086;16.282;2022-07-03T13:27:49;3.33;;;1.40;;
12921;SDS011;6528;48.086;16.282;2022-07-03T13:30:17;2.07;;;1.30;;
12921;SDS011;6528;48.086;16.282;2022-07-03T13:32:46;1.47;;;1.37;;
12921;SDS011;6528;48.086;16.282;2022-07-03T13:35:13;1.30;;;1.30;;
12921;SDS011;6528;48.086;16.282;2022-07-03T13:37:39;1.00;;;1.00;;
12921;SDS011;6528;48.086;16.282;2022-07-03T13:40:06;1.30;;;1.20;;
12921;SDS011;6528;48.086;16.282;2022-07-03T13:42:34;1.20;;;1.20;;
12921;SDS011;6528;48.086;16.282;2022-07-03T13:45:01;1.27;;;1.17;;
12921;SDS011;6528;48.086;16.282;2022-07-03T13:47:28;1.33;;;1.23;;
12921;SDS011;6528;48.086;16.282;2022-07-03T13:49:55;1.23;;;1.23;;
12921;SDS011;6528;48.086;16.282;2022-07-03T13:52:22;1.70;;;1.60;;
12921;SDS011;6528;48.086;16.282;2022-07-03T13:54:48;2.33;;;1.60;;
12921;SDS011;6528;48.086;16.282;2022-07-03T13:57:15;3.23;;;1.73;;
12921;SDS011;6528;48.086;16.282;2022-07-03T13:59:42;4.53;;;1.57;;
12921;SDS011;6528;48.086;16.282;2022-07-03T14:02:09;4.23;;;1.63;;
12921;SDS011;6528;48.086;16.282;2022-07-03T14:04:36;1.47;;;1.30;;
12921;SDS011;6528;48.086;16.282;2022-07-03T14:07:03;4.83;;;1.70;;
12921;SDS011;6528;48.086;16.282;2022-07-03T14:09:30;2.30;;;1.33;;
12921;SDS011;6528;48.086;16.282;2022-07-03T14:11:57;1.40;;;1.30;;
12921;SDS011;6528;48.086;16.282;2022-07-03T14:14:25;1.33;;;0.93;;
12921;SDS011;6528;48.086;16.282;2022-07-03T14:16:52;8.27;;;1.60;;
12921;SDS011;6528;48.086;16.282;2022-07-03T14:19:18;1.30;;;1.20;;
12921;SDS011;6528;48.086;16.282;2022-07-03T14:21:45;1.30;;;1.07;;
12921;SDS011;6528;48.086;16.282;2022-07-03T14:24:13;1.10;;;1.10;;
12921;SDS011;6528;48.086;16.282;2022-07-03T14:26:40;2.03;;;1.60;;
12921;SDS011;6528;48.086;16.282;2022-07-03T14:29:25;0.90;;;0.90;;
12921;SDS011;6528;48.086;16.282;2022-07-03T14:32:10;1.47;;;1.00;;
12921;SDS011;6528;48.086;16.282;2022-07-03T14:34:56;0.93;;;0.93;;
12921;SDS011;6528;48.086;16.282;2022-07-03T14:37:27;1.67;;;0.80;;
12921;SDS011;6528;48.086;16.282;2022-07-03T14:39:54;0.80;;;0.80;;
12921;SDS011;6528;48.086;16.282;2022-07-03T14:42:21;1.53;;;1.27;;
12921;SDS011;6528;48.086;16.282;2022-07-03T14:44:48;1.10;;;1.10;;
12921;SDS011;6528;48.086;16.282;2022-07-03T14:47:15;1.23;;;1.23;;
12921;SDS011;6528;48.086;16.282;2022-07-03T14:49:43;1.40;;;1.40;;
12921;SDS011;6528;48.086;16.282;2022-07-03T14:52:10;1.00;;;1.00;;
12921;SDS011;6528;48.086;16.282;2022-07-03T14:54:38;0.80;;;0.80;;
12921;SDS011;6528;48.086;16.282;2022-07-03T14:57:14;1.13;;;0.70;;
12921;SDS011;6528;48.086;16.282;2022-07-03T15:00:04;1.20;;;1.10;;
12921;SDS011;6528;48.086;16.282;2022-07-03T15:03:16;0.80;;;0.80;;
12921;SDS011;6528;48.086;16.282;2022-07-03T15:05:46;1.20;;;1.20;;
12921;SDS011;6528;48.086;16.282;2022-07-03T15:10:56;1.07;;;1.07;;
12921;SDS011;6528;48.086;16.282;2022-07-03T15:13:26;0.67;;;0.67;;
12921;SDS011;6528;48.086;16.282;2022-07-03T15:15:54;1.63;;;0.80;;
12921;SDS011;6528;48.086;16.282;2022-07-03T15:18:22;0.77;;;0.77;;
12921;SDS011;6528;48.086;16.282;2022-07-03T15:20:50;0.87;;;0.83;;
12921;SDS011;6528;48.086;16.282;2022-07-03T15:23:18;0.80;;;0.80;;
12921;SDS011;6528;48.086;16.282;2022-07-03T15:25:46;1.73;;;1.23;;
12921;SDS011;6528;48.086;16.282;2022-07-03T15:28:14;0.90;;;0.90;;
12921;SDS011;6528;48.086;16.282;2022-07-03T15:30:47;0.60;;;0.60;;
12921;SDS011;6528;48.086;16.282;2022-07-03T15:33:16;1.20;;;0.80;;
12921;SDS011;6528;48.086;16.282;2022-07-03T15:35:45;2.50;;;0.90;;
12921;SDS011;6528;48.086;16.282;2022-07-03T15:38:13;0.63;;;0.63;;
12921;SDS011;6528;48.086;16.282;2022-07-03T15:40:51;0.73;;;0.60;;
12921;SDS011;6528;48.086;16.282;2022-07-03T15:43:23;1.80;;;0.80;;
12921;SDS011;6528;48.086;16.282;2022-07-03T15:51:18;0.97;;;0.93;;
12921;SDS011;6528;48.086;16.282;2022-07-03T15:54:00;1.27;;;0.60;;
12921;SDS011;6528;48.086;16.282;2022-07-03T15:56:30;0.77;;;0.77;;
12921;SDS011;6528;48.086;16.282;2022-07-03T15:59:09;2.93;;;1.03;;
12921;SDS011;6528;48.086;16.282;2022-07-03T16:01:39;0.80;;;0.80;;
12921;SDS011;6528;48.086;16.282;2022-07-03T16:07:03;0.70;;;0.70;;
12921;SDS011;6528;48.086;16.282;2022-07-03T16:09:33;1.33;;;1.03;;
12921;SDS011;6528;48.086;16.282;2022-07-03T16:12:00;0.80;;;0.80;;
12921;SDS011;6528;48.086;16.282;2022-07-03T16:14:30;0.90;;;0.90;;
12921;SDS011;6528;48.086;16.282;2022-07-03T16:16:58;0.97;;;0.90;;
12921;SDS011;6528;48.086;16.282;2022-07-03T16:19:29;0.90;;;0.90;;
12921;SDS011;6528;48.086;16.282;2022-07-03T16:22:00;1.20;;;1.20;;
12921;SDS011;6528;48.086;16.282;2022-07-03T16:24:33;2.37;;;1.10;;
12921;SDS011;6528;48.086;16.282;2022-07-03T16:27:01;1.30;;;1.20;;
12921;SDS011;6528;48.086;16.282;2022-07-03T16:29:28;1.27;;;1.20;;
12921;SDS011;6528;48.086;16.282;2022-07-03T16:31:55;1.50;;;1.40;;
12921;SDS011;6528;48.086;16.282;2022-07-03T16:34:38;1.40;;;1.33;;
12921;SDS011;6528;48.086;16.282;2022-07-03T16:37:28;1.10;;;1.10;;
12921;SDS011;6528;48.086;16.282;2022-07-03T16:40:10;1.13;;;1.03;;
12921;SDS011;6528;48.086;16.282;2022-07-03T16:42:40;1.53;;;0.90;;
12921;SDS011;6528;48.086;16.282;2022-07-03T16:45:09;1.00;;;1.00;;
12921;SDS011;6528;48.086;16.282;2022-07-03T16:47:41;0.93;;;0.93;;
12921;SDS011;6528;48.086;16.282;2022-07-03T16:50:10;2.30;;;1.17;;
12921;SDS011;6528;48.086;16.282;2022-07-03T16:52:45;1.63;;;1.20;;
12921;SDS011;6528;48.086;16.282;2022-07-03T16:55:17;1.10;;;1.10;;
12921;SDS011;6528;48.086;16.282;2022-07-03T16:57:49;1.23;;;1.13;;
12921;SDS011;6528;48.086;16.282;2022-07-03T17:00:19;1.00;;;1.00;;